createdAt,value
2022-12-28T00:02:18.452Z,116.57
2022-12-28T00:05:06.883Z,124.33
2022-12-28T00:07:54.902Z,115.93
2022-12-28T00:11:09.463Z,112.83
2022-12-28T00:13:50.820Z,107.67
2022-12-28T00:16:41.686Z,110.17
2022-12-28T00:19:29.743Z,121.40
2022-12-28T00:22:17.709Z,116.97
2022-12-28T00:25:06.630Z,111.03
2022-12-28T00:27:54.568Z,118.10
2022-12-28T00:30:42.532Z,109.47
2022-12-28T00:33:31.900Z,114.83
2022-12-28T00:36:20.025Z,106.40
2022-12-28T00:39:08.653Z,117.07
2022-12-28T00:41:56.585Z,120.17
2022-12-28T00:44:44.966Z,101.50
2022-12-28T00:47:32.882Z,118.27
2022-12-28T00:50:22.183Z,118.23
2022-12-28T00:53:10.218Z,121.23
2022-12-28T00:56:05.785Z,115.80
2022-12-28T00:58:58.297Z,110.13
2022-12-28T01:01:46.336Z,117.00
2022-12-28T01:04:35.289Z,127.23
2022-12-28T01:07:24.547Z,119.53
2022-12-28T01:10:12.527Z,129.17
2022-12-28T01:13:00.451Z,125.17
2022-12-28T01:15:48.402Z,129.20
2022-12-28T01:18:36.375Z,125.10
2022-12-28T01:21:26.035Z,134.47
2022-12-28T01:24:15.318Z,136.57
2022-12-28T01:27:03.256Z,144.60
2022-12-28T01:29:51.611Z,138.27
2022-12-28T01:32:39.559Z,147.17
2022-12-28T01:35:28.571Z,143.77
2022-12-28T01:38:16.512Z,146.33
2022-12-28T01:41:07.907Z,150.77
2022-12-28T01:44:44.953Z,132.70
2022-12-28T01:47:36.613Z,131.73
2022-12-28T01:50:28.061Z,136.20
2022-12-28T01:53:16.627Z,134.07
2022-12-28T01:56:06.475Z,136.70
2022-12-28T01:58:55.874Z,144.97
2022-12-28T02:01:44.407Z,148.30
2022-12-28T02:04:32.394Z,134.03
2022-12-28T02:07:31.096Z,140.27
2022-12-28T02:10:44.188Z,128.27
2022-12-28T02:13:29.818Z,125.50
2022-12-28T02:16:18.900Z,119.63
2022-12-28T02:19:10.263Z,128.37
2022-12-28T02:22:14.662Z,140.37
2022-12-28T02:25:25.753Z,118.07
2022-12-28T02:28:30.988Z,115.73
2022-12-28T02:31:27.907Z,119.73
2022-12-28T02:34:23.798Z,121.80
2022-12-28T02:37:17.250Z,116.47
2022-12-28T02:40:10.586Z,128.27
2022-12-28T02:42:59.018Z,115.33
2022-12-28T02:46:06.091Z,124.77
2022-12-28T02:49:12.933Z,121.27
2022-12-28T02:52:09.699Z,123.97
2022-12-28T02:55:38.939Z,126.10
2022-12-28T02:58:55.915Z,107.63
2022-12-28T03:02:05.555Z,116.97
2022-12-28T03:05:11.521Z,135.13
2022-12-28T03:08:20.137Z,109.23
2022-12-28T03:11:16.020Z,115.00
2022-12-28T03:14:09.147Z,126.37
2022-12-28T03:17:18.510Z,123.97
2022-12-28T03:20:30.196Z,122.50
2022-12-28T03:23:41.747Z,127.30
2022-12-28T03:26:50.768Z,118.47
2022-12-28T03:30:01.725Z,121.63
2022-12-28T03:32:51.633Z,121.23
2022-12-28T03:35:47.039Z,111.43
2022-12-28T03:38:45.006Z,129.80
2022-12-28T03:41:38.815Z,122.57
2022-12-28T03:44:52.725Z,121.20
2022-12-28T03:47:43.501Z,120.17
2022-12-28T03:50:35.924Z,114.97
2022-12-28T03:53:30.123Z,125.20
2022-12-28T03:56:21.467Z,134.50
2022-12-28T03:59:10.492Z,118.87
2022-12-28T04:02:02.888Z,120.10
2022-12-28T04:04:52.843Z,132.73
2022-12-28T04:07:40.909Z,127.87
2022-12-28T04:10:30.284Z,129.03
2022-12-28T04:13:19.363Z,129.67
2022-12-28T04:16:14.769Z,124.00
2022-12-28T04:19:04.384Z,119.13
2022-12-28T04:21:52.736Z,137.10
2022-12-28T04:24:41.576Z,119.13
2022-12-28T04:27:31.075Z,117.43
2022-12-28T04:30:24.111Z,126.50
2022-12-28T04:33:12.234Z,125.07
2022-12-28T04:36:06.876Z,135.50
2022-12-28T04:38:55.350Z,129.83
2022-12-28T04:41:43.307Z,130.90
2022-12-28T04:44:33.444Z,131.60
2022-12-28T04:47:21.462Z,115.67
2022-12-28T04:50:09.952Z,125.17
2022-12-28T04:52:59.139Z,125.63
2022-12-28T04:55:47.284Z,129.37
2022-12-28T04:58:35.242Z,131.33
2022-12-28T05:01:24.619Z,136.77
2022-12-28T05:04:12.769Z,130.97
2022-12-28T05:07:00.673Z,136.27
2022-12-28T05:09:48.597Z,127.50
2022-12-28T05:12:36.568Z,141.33
2022-12-28T05:15:24.515Z,131.30
2022-12-28T05:18:13.747Z,134.00
2022-12-28T05:21:04.615Z,131.90
2022-12-28T05:23:53.922Z,138.37
2022-12-28T05:26:41.954Z,142.17
2022-12-28T05:29:29.957Z,133.57
2022-12-28T05:32:18.065Z,144.23
2022-12-28T05:35:09.039Z,132.97
2022-12-28T05:37:56.947Z,139.87
2022-12-28T05:40:44.906Z,137.07
2022-12-28T05:43:33.028Z,139.47
2022-12-28T05:46:24.158Z,134.03
2022-12-28T05:49:12.250Z,148.40
2022-12-28T05:52:01.889Z,142.70
2022-12-28T05:54:49.802Z,125.03
2022-12-28T05:57:37.740Z,146.93
2022-12-28T06:00:25.763Z,142.90
2022-12-28T06:03:13.749Z,130.37
2022-12-28T06:06:09.828Z,139.97
2022-12-28T06:08:59.373Z,129.90
2022-12-28T06:11:47.470Z,134.57
2022-12-28T06:14:35.390Z,136.10
2022-12-28T06:17:23.301Z,136.93
2022-12-28T06:20:12.221Z,143.73
2022-12-28T06:23:00.119Z,142.13
2022-12-28T06:25:49.389Z,144.87
2022-12-28T06:28:37.977Z,133.13
2022-12-28T06:31:28.213Z,139.77
2022-12-28T06:34:16.166Z,143.43
2022-12-28T06:37:04.341Z,136.30
2022-12-28T06:39:52.250Z,142.03
2022-12-28T06:42:41.499Z,139.90
2022-12-28T06:45:29.474Z,137.37
2022-12-28T06:48:17.469Z,126.43
2022-12-28T06:51:07.224Z,131.90
2022-12-28T06:53:55.803Z,133.90
2022-12-28T06:56:43.689Z,142.17
2022-12-28T06:59:32.964Z,138.53
2022-12-28T07:02:21.074Z,151.63
2022-12-28T07:04:48.755Z,162.63
2022-12-28T07:07:16.387Z,139.90
2022-12-28T07:09:44.676Z,142.93
2022-12-28T07:12:12.411Z,155.03
2022-12-28T07:14:41.458Z,142.93
2022-12-28T07:17:09.180Z,149.13
2022-12-28T07:19:36.797Z,156.27
2022-12-28T07:22:04.435Z,141.87
2022-12-28T07:24:32.080Z,150.40
2022-12-28T07:26:59.688Z,155.43
2022-12-28T07:29:27.381Z,138.10
2022-12-28T07:31:56.611Z,154.67
2022-12-28T07:34:24.712Z,153.47
2022-12-28T07:36:52.428Z,150.20
2022-12-28T07:39:20.201Z,147.53
2022-12-28T07:41:47.830Z,156.17
2022-12-28T07:44:23.827Z,148.53
2022-12-28T07:46:53.174Z,151.00
2022-12-28T07:49:22.165Z,161.40
2022-12-28T07:51:50.002Z,152.17
2022-12-28T07:54:17.616Z,156.27
2022-12-28T07:56:45.244Z,169.37
2022-12-28T07:59:14.172Z,169.37
2022-12-28T08:01:41.920Z,160.03
2022-12-28T08:04:13.154Z,160.03
2022-12-28T08:06:44.164Z,168.97
2022-12-28T08:09:14.115Z,149.00
2022-12-28T08:11:43.603Z,157.90
2022-12-28T08:14:12.489Z,160.27
2022-12-28T08:16:42.360Z,144.07
2022-12-28T08:19:10.654Z,156.77
2022-12-28T08:21:40.737Z,156.53
2022-12-28T08:24:14.182Z,153.37
2022-12-28T08:26:42.309Z,159.50
2022-12-28T08:29:12.334Z,171.60
2022-12-28T08:31:42.077Z,179.30
2022-12-28T08:34:13.818Z,181.13
2022-12-28T08:36:41.772Z,173.20
2022-12-28T08:39:10.967Z,187.87
2022-12-28T08:41:38.860Z,198.57
2022-12-28T08:44:07.218Z,189.43
2022-12-28T08:46:37.028Z,186.23
2022-12-28T08:49:05.762Z,178.80
2022-12-28T08:51:35.255Z,196.33
2022-12-28T08:54:04.089Z,191.70
2022-12-28T08:56:35.008Z,197.00
2022-12-28T08:59:02.997Z,187.90
2022-12-28T09:01:38.954Z,205.73
2022-12-28T09:04:15.220Z,208.33
2022-12-28T09:06:43.192Z,229.33
2022-12-28T09:09:13.164Z,241.10
2022-12-28T09:11:42.215Z,243.00
2022-12-28T09:14:18.477Z,236.80
2022-12-28T09:16:50.157Z,255.10
2022-12-28T09:19:17.819Z,273.37
2022-12-28T09:21:48.859Z,271.87
2022-12-28T09:24:16.575Z,252.47
2022-12-28T09:26:45.759Z,286.33
2022-12-28T09:29:14.657Z,254.67
2022-12-28T09:31:44.296Z,287.90
2022-12-28T09:37:01.372Z,270.50
2022-12-28T09:39:29.555Z,278.87
2022-12-28T09:42:01.368Z,263.70
2022-12-28T09:44:41.066Z,258.77
2022-12-28T09:47:18.441Z,237.87
2022-12-28T09:49:56.952Z,265.87
2022-12-28T09:52:29.783Z,271.50
2022-12-28T09:55:06.127Z,269.10
2022-12-28T09:57:38.774Z,267.43
2022-12-28T10:00:15.869Z,288.13
2022-12-28T10:02:49.093Z,271.13
2022-12-28T10:05:17.036Z,297.80
2022-12-28T10:07:44.823Z,278.53
2022-12-28T10:10:17.463Z,286.63
2022-12-28T10:12:47.792Z,297.40
2022-12-28T10:15:15.977Z,285.07
2022-12-28T10:17:44.626Z,305.80
2022-12-28T10:20:17.776Z,314.97
2022-12-28T10:22:50.263Z,303.43
2022-12-28T10:25:20.555Z,296.47
2022-12-28T10:27:50.419Z,285.10
2022-12-28T10:30:20.811Z,290.17
2022-12-28T10:32:58.048Z,281.07
2022-12-28T10:35:33.185Z,281.77
2022-12-28T10:38:04.521Z,299.17
2022-12-28T10:40:34.618Z,289.37
2022-12-28T10:43:10.107Z,282.50
2022-12-28T10:45:42.047Z,289.53
2022-12-28T10:48:15.622Z,275.53
2022-12-28T10:50:52.468Z,284.47
2022-12-28T10:53:26.335Z,302.87
2022-12-28T10:56:06.704Z,275.63
2022-12-28T10:58:35.900Z,279.47
2022-12-28T11:01:08.650Z,311.10
2022-12-28T11:03:38.363Z,291.63
2022-12-28T11:06:22.732Z,293.97
2022-12-28T11:09:04.664Z,310.17
2022-12-28T11:11:32.550Z,274.30
2022-12-28T11:14:05.507Z,303.57
2022-12-28T11:16:37.802Z,280.30
2022-12-28T11:19:05.811Z,288.93
2022-12-28T11:21:35.906Z,313.30
2022-12-28T11:24:05.284Z,307.83
2022-12-28T11:26:34.668Z,324.53
2022-12-28T11:29:03.702Z,299.27
2022-12-28T11:31:36.058Z,313.40
2022-12-28T11:34:07.302Z,319.23
2022-12-28T11:36:40.471Z,302.17
2022-12-28T11:39:44.683Z,303.70
2022-12-28T11:42:39.078Z,294.03
2022-12-28T11:45:03.013Z,285.67
2022-12-28T11:47:33.894Z,301.30
2022-12-28T11:50:42.317Z,311.57
2022-12-28T11:53:54.855Z,262.73
2022-12-28T11:56:24.407Z,278.27
2022-12-28T11:59:23.085Z,273.60
2022-12-28T12:01:54.244Z,288.57
2022-12-28T12:04:43.299Z,280.03
2022-12-28T12:07:30.598Z,298.23
2022-12-28T12:10:21.156Z,279.77
2022-12-28T12:12:51.381Z,295.20
2022-12-28T12:15:21.470Z,311.40
2022-12-28T12:17:56.053Z,286.10
2022-12-28T12:20:45.319Z,299.87
2022-12-28T12:23:24.573Z,287.83
2022-12-28T12:25:54.624Z,312.27
2022-12-28T12:28:34.020Z,334.03
2022-12-28T12:31:04.020Z,314.50
2022-12-28T12:33:36.858Z,291.23
2022-12-28T12:36:21.332Z,316.73
2022-12-28T12:39:08.743Z,283.83
2022-12-28T12:41:46.841Z,290.50
2022-12-28T12:44:24.424Z,303.93
2022-12-28T12:47:21.531Z,299.20
2022-12-28T12:50:19.562Z,290.47
2022-12-28T12:52:55.747Z,300.73
2022-12-28T12:55:39.746Z,294.23
2022-12-28T12:58:17.475Z,289.23
2022-12-28T13:00:51.941Z,299.07
2022-12-28T13:03:29.298Z,306.77
2022-12-28T13:05:59.404Z,296.87
2022-12-28T13:08:32.177Z,304.67
2022-12-28T13:10:59.936Z,306.30
2022-12-28T13:13:32.087Z,301.17
2022-12-28T13:16:03.905Z,301.50
2022-12-28T13:18:48.106Z,322.27
2022-12-28T13:21:22.043Z,303.53
2022-12-28T13:23:51.840Z,288.43
2022-12-28T13:26:24.450Z,300.70
2022-12-28T13:28:56.747Z,301.40
2022-12-28T13:31:30.051Z,305.10
2022-12-28T13:33:59.528Z,310.00
2022-12-28T13:36:28.870Z,303.13
2022-12-28T13:39:12.629Z,318.23
2022-12-28T13:41:48.063Z,302.17
2022-12-28T13:44:48.419Z,303.80
2022-12-28T13:47:23.134Z,296.20
2022-12-28T13:49:57.802Z,313.00
2022-12-28T13:52:31.935Z,307.90
2022-12-28T13:55:04.522Z,305.93
2022-12-28T13:57:57.414Z,311.08
2022-12-28T14:00:24.065Z,303.93
2022-12-28T14:02:54.912Z,324.27
2022-12-28T14:05:25.982Z,324.13
2022-12-28T14:07:57.287Z,323.35
2022-12-28T14:10:25.599Z,323.50
2022-12-28T14:12:54.688Z,339.80
2022-12-28T14:15:23.225Z,326.73
2022-12-28T14:17:52.513Z,329.15
2022-12-28T14:20:20.363Z,341.55
2022-12-28T14:22:48.141Z,330.67
2022-12-28T14:25:19.588Z,331.77
2022-12-28T14:27:57.351Z,327.40
2022-12-28T14:30:27.625Z,315.25
2022-12-28T14:32:55.908Z,333.95
2022-12-28T14:35:25.705Z,319.73
2022-12-28T14:37:55.632Z,345.50
2022-12-28T14:40:29.034Z,322.00
2022-12-28T14:42:57.679Z,327.33
2022-12-28T14:46:05.872Z,334.25
2022-12-28T14:48:33.395Z,314.15
2022-12-28T14:51:03.814Z,319.02
2022-12-28T14:53:32.084Z,341.92
2022-12-28T14:56:06.173Z,325.70
2022-12-28T14:58:47.893Z,346.45
2022-12-28T15:01:20.596Z,312.70
2022-12-28T15:03:50.904Z,329.47
2022-12-28T15:06:19.985Z,326.67
2022-12-28T15:08:49.663Z,348.60
2022-12-28T15:11:20.423Z,318.80
2022-12-28T15:13:49.072Z,324.20
2022-12-28T15:16:18.383Z,337.10
2022-12-28T15:18:46.475Z,322.53
2022-12-28T15:21:17.292Z,309.83
2022-12-28T15:23:48.844Z,318.52
2022-12-28T15:26:16.487Z,321.58
2022-12-28T15:28:45.522Z,317.08
2022-12-28T15:31:15.197Z,305.83
2022-12-28T15:33:42.921Z,310.25
2022-12-28T15:36:17.335Z,319.05
2022-12-28T15:38:46.061Z,305.67
2022-12-28T15:41:27.862Z,311.93
2022-12-28T15:43:56.864Z,326.10
2022-12-28T15:46:24.677Z,316.40
2022-12-28T15:48:52.489Z,324.25
2022-12-28T15:51:20.442Z,305.23
2022-12-28T15:53:48.180Z,289.45
2022-12-28T15:56:21.630Z,305.42
2022-12-28T15:58:49.402Z,305.38
2022-12-28T16:01:18.542Z,300.90
2022-12-28T16:03:46.273Z,292.48
2022-12-28T16:06:13.942Z,317.63
2022-12-28T16:08:41.925Z,292.93
2022-12-28T16:11:11.012Z,305.88
2022-12-28T16:13:38.719Z,295.83
2022-12-28T16:16:07.003Z,290.45
2022-12-28T16:18:36.249Z,303.53
2022-12-28T16:21:06.102Z,290.48
2022-12-28T16:23:36.294Z,303.40
2022-12-28T16:26:04.952Z,294.98
2022-12-28T16:28:32.832Z,309.42
2022-12-28T16:31:00.540Z,305.83
2022-12-28T16:33:28.865Z,310.88
2022-12-28T16:35:59.871Z,301.33
2022-12-28T16:38:30.421Z,306.48
2022-12-28T16:40:58.172Z,297.67
2022-12-28T16:43:25.878Z,298.27
2022-12-28T16:45:54.639Z,308.58
2022-12-28T16:48:22.318Z,314.75
2022-12-28T16:50:59.732Z,288.80
2022-12-28T16:53:27.843Z,280.85
2022-12-28T16:55:56.460Z,287.83
2022-12-28T16:58:24.101Z,300.17
2022-12-28T17:00:52.611Z,300.40
2022-12-28T17:03:20.455Z,305.30
2022-12-28T17:05:50.911Z,282.88
2022-12-28T17:08:20.304Z,297.98
2022-12-28T17:10:48.195Z,297.58
2022-12-28T17:13:16.309Z,294.08
2022-12-28T17:15:45.738Z,295.40
2022-12-28T17:18:13.658Z,307.48
2022-12-28T17:20:42.075Z,284.08
2022-12-28T17:23:09.897Z,304.90
2022-12-28T17:25:38.887Z,292.63
2022-12-28T17:28:06.578Z,308.23
2022-12-28T17:30:34.945Z,310.55
2022-12-28T17:33:02.655Z,280.55
2022-12-28T17:35:30.507Z,286.50
2022-12-28T17:37:58.391Z,295.23
2022-12-28T17:40:26.039Z,282.92
2022-12-28T17:42:55.135Z,291.57
2022-12-28T17:45:22.847Z,299.58
2022-12-28T17:47:50.549Z,304.77
2022-12-28T17:50:19.985Z,300.10
2022-12-28T17:52:47.637Z,288.52
2022-12-28T17:55:15.551Z,290.17
2022-12-28T17:57:43.235Z,293.48
2022-12-28T18:00:13.804Z,303.50
2022-12-28T18:02:41.909Z,286.95
2022-12-28T18:05:10.536Z,295.27
2022-12-28T18:07:38.192Z,277.95
2022-12-28T18:10:06.644Z,293.40
2022-12-28T18:12:34.393Z,289.37
2022-12-28T18:15:02.092Z,305.98
2022-12-28T18:17:31.307Z,297.25
2022-12-28T18:19:58.965Z,297.40
2022-12-28T18:22:26.689Z,288.95
2022-12-28T18:24:54.740Z,291.93
2022-12-28T18:27:22.456Z,296.40
2022-12-28T18:29:51.997Z,307.35
2022-12-28T18:32:19.823Z,301.73
2022-12-28T18:34:48.825Z,286.20
2022-12-28T18:37:16.468Z,308.30
2022-12-28T18:39:44.122Z,267.37
2022-12-28T18:42:11.820Z,298.20
2022-12-28T18:44:39.476Z,286.07
2022-12-28T18:47:07.141Z,286.83
2022-12-28T18:49:34.773Z,280.33
2022-12-28T18:52:04.185Z,270.83
2022-12-28T18:54:32.012Z,280.52
2022-12-28T18:56:59.739Z,291.58
2022-12-28T18:59:27.536Z,280.73
2022-12-28T19:02:06.361Z,284.00
2022-12-28T19:04:34.967Z,281.05
2022-12-28T19:07:04.316Z,297.17
2022-12-28T19:09:32.168Z,297.42
2022-12-28T19:12:00.008Z,301.43
2022-12-28T19:14:27.769Z,287.00
2022-12-28T19:16:55.410Z,280.42
2022-12-28T19:19:23.116Z,294.50
2022-12-28T19:21:56.541Z,279.92
2022-12-28T19:24:27.702Z,284.60
2022-12-28T19:26:55.409Z,286.48
2022-12-28T19:29:23.781Z,299.75
2022-12-28T19:31:51.797Z,301.15
2022-12-28T19:34:19.551Z,302.20
2022-12-28T19:36:47.277Z,296.65
2022-12-28T19:39:14.975Z,317.30
2022-12-28T19:41:44.166Z,299.75
2022-12-28T19:44:12.016Z,307.70
2022-12-28T19:46:39.744Z,320.35
2022-12-28T19:49:07.426Z,292.10
2022-12-28T19:51:35.403Z,318.05
2022-12-28T19:54:03.401Z,299.27
2022-12-28T19:56:31.806Z,301.60
2022-12-28T19:59:06.209Z,302.73
2022-12-28T20:01:36.580Z,304.92
2022-12-28T20:04:12.297Z,304.13
2022-12-28T20:06:40.871Z,310.48
2022-12-28T20:09:08.839Z,290.45
2022-12-28T20:11:36.819Z,291.35
2022-12-28T20:14:07.016Z,300.35
2022-12-28T20:16:36.072Z,306.35
2022-12-28T20:19:06.598Z,295.02
2022-12-28T20:21:35.664Z,297.50
2022-12-28T20:24:03.715Z,303.90
2022-12-28T20:26:32.608Z,312.65
2022-12-28T20:29:01.347Z,314.92
2022-12-28T20:31:30.953Z,295.50
2022-12-28T20:33:58.877Z,287.38
2022-12-28T20:36:28.497Z,296.80
2022-12-28T20:38:57.349Z,306.85
2022-12-28T20:41:45.545Z,293.08
2022-12-28T20:44:15.675Z,304.15
2022-12-28T20:46:45.410Z,294.85
2022-12-28T20:49:14.037Z,299.65
2022-12-28T20:51:42.264Z,298.55
2022-12-28T20:54:10.595Z,296.75
2022-12-28T20:56:38.598Z,301.85
2022-12-28T20:59:07.261Z,294.88
2022-12-28T21:01:36.055Z,312.13
2022-12-28T21:04:24.791Z,302.25
2022-12-28T21:07:13.067Z,316.67
2022-12-28T21:10:01.037Z,302.80
2022-12-28T21:12:48.985Z,299.48
2022-12-28T21:15:40.699Z,292.58
2022-12-28T21:18:28.617Z,299.15
2022-12-28T21:21:19.814Z,296.35
2022-12-28T21:24:08.298Z,306.27
2022-12-28T21:26:56.297Z,305.48
2022-12-28T21:29:44.252Z,300.58
2022-12-28T21:32:32.235Z,298.77
2022-12-28T21:35:20.182Z,300.55
2022-12-28T21:38:09.521Z,289.02
2022-12-28T21:40:59.297Z,301.63
2022-12-28T21:43:47.249Z,305.90
2022-12-28T21:46:35.372Z,295.67
2022-12-28T21:49:23.365Z,286.75
2022-12-28T21:52:11.352Z,294.80
2022-12-28T21:55:21.179Z,290.17
2022-12-28T21:58:09.358Z,295.85
2022-12-28T22:01:17.969Z,297.02
2022-12-28T22:04:23.508Z,298.13
2022-12-28T22:07:14.906Z,279.05
2022-12-28T22:10:22.773Z,291.23
2022-12-28T22:13:10.741Z,295.58
2022-12-28T22:15:58.774Z,299.38
2022-12-28T22:19:02.154Z,307.23
2022-12-28T22:21:50.940Z,296.27
2022-12-28T22:24:38.865Z,297.25
2022-12-28T22:27:28.289Z,293.15
2022-12-28T22:30:16.345Z,304.85
2022-12-28T22:33:04.748Z,284.88
2022-12-28T22:35:52.640Z,286.95
2022-12-28T22:38:40.828Z,296.50
2022-12-28T22:41:28.837Z,301.55
2022-12-28T22:44:18.174Z,312.95
2022-12-28T22:47:06.254Z,289.48
2022-12-28T22:49:54.279Z,304.13
2022-12-28T22:52:42.557Z,286.17
2022-12-28T22:55:30.481Z,299.85
2022-12-28T22:58:18.409Z,285.73
2022-12-28T23:01:10.539Z,302.05
2022-12-28T23:03:58.529Z,289.45
2022-12-28T23:06:46.645Z,294.73
2022-12-28T23:09:34.758Z,297.52
2022-12-28T23:12:22.726Z,281.80
2022-12-28T23:15:19.410Z,295.85
2022-12-28T23:18:22.752Z,303.17
2022-12-28T23:21:35.703Z,284.42
2022-12-28T23:24:41.495Z,295.85
2022-12-28T23:27:34.498Z,292.40
2022-12-28T23:30:23.274Z,279.55
2022-12-28T23:33:12.690Z,295.88
2022-12-28T23:36:02.567Z,290.17
2022-12-28T23:38:51.690Z,308.20
2022-12-28T23:41:48.928Z,295.05
2022-12-28T23:44:36.931Z,302.05
2022-12-28T23:47:24.941Z,295.42
2022-12-28T23:50:16.081Z,296.33
2022-12-28T23:53:04.047Z,274.13
2022-12-28T23:55:51.953Z,295.63
2022-12-28T23:58:39.929Z,284.70
